Humidity-temperature Sensor

Selected Measurement Type: Air Temperature

 
Air Temperature [°C]     6 entries per hour
Showing data from 7/3/2019 (00:00:00 Z) to 7/2/2019 (00:01:00 Z)
Previous Next [ Day | 3-Days | 7-Days ]
First Last
Prev [ Day | 3-Days | 7-Days ] Next
First Last

Start Time:     :
End Time:     :     
Time (in GMT) :00 :50 :40 :30 :20 :10
Previous Next [ Day | 3-Days | 7-Days ]
First Last
Prev [ Day | 3-Days | 7-Days ] Next
First Last


123 => good data
MM => data is determined as missing
-- => data not received/configured
Back to Top Back to Top
7/3/2019 00:00 to 23:10 24.63 24.49 24.53 24.53 24.46 24.47
7/2/2019 23:00 to 22:10 24.55 24.35 24.39 24.47 24.44 24.42
7/2/2019 22:00 to 21:10 24.43 24.39 24.41 24.39 24.38 24.44
7/2/2019 21:00 to 20:10 24.45 24.39 24.46 24.55 24.53 24.52
7/2/2019 20:00 to 19:10 24.55 24.44 24.53 24.52 24.56 24.60
7/2/2019 19:00 to 18:10 24.67 24.65 24.66 24.83 24.69 24.78
7/2/2019 18:00 to 17:10 24.82 24.81 24.83 24.75 24.64 24.67
7/2/2019 17:00 to 16:10 24.87 24.68 24.65 24.89 24.87 24.92
7/2/2019 16:00 to 15:10 24.98 24.91 24.95 24.93 24.97 24.90
7/2/2019 15:00 to 14:10 24.67 24.81 24.98 24.90 24.73 24.62
7/2/2019 14:00 to 13:10 24.62 24.53 24.67 24.53 24.55 24.50
7/2/2019 13:00 to 12:10 24.50 24.42 24.46 24.50 24.52 24.42
7/2/2019 12:00 to 11:10 24.51 24.40 24.40 24.38 24.45 24.37
7/2/2019 11:00 to 10:10 24.45 24.59 24.48 24.58 24.50 24.53
7/2/2019 10:00 to 9:10 24.45 24.42 24.52 24.57 24.60 24.51
7/2/2019 09:00 to 8:10 24.57 24.59 24.51 24.62 24.64 24.60
7/2/2019 08:00 to 7:10 24.59 24.68 24.77 24.76 24.81 24.75
7/2/2019 07:00 to 6:10 24.75 24.85 24.87 24.81 24.87 24.78
7/2/2019 06:00 to 5:10 24.83 24.79 24.77 24.72 24.78 24.85
7/2/2019 05:00 to 4:10 24.91 24.91 24.95 24.74 24.70 24.69
7/2/2019 04:00 to 3:10 24.62 24.67 24.69 24.62 24.59 24.70
7/2/2019 03:00 to 2:10 24.67 24.65 24.71 24.62 24.70 24.71
7/2/2019 02:00 to 1:10 24.70 24.63 24.78 24.74 24.75 24.81
7/2/2019 01:00 to 0:10 24.78 24.94 24.78 24.76 24.84 24.87